sensor_id;sensor_type;location;lat;lon;timestamp;pressure;altitude;pressure_sealevel;temperature;humidity
51249;BME280;39642;47.556;18.728;2023-03-25T00:00:54;98737.25;;;20.62;38.66
51249;BME280;39642;47.556;18.728;2023-03-25T00:03:27;98736.31;;;20.63;38.96
51249;BME280;39642;47.556;18.728;2023-03-25T00:05:54;98742.53;;;20.62;38.92
51249;BME280;39642;47.556;18.728;2023-03-25T00:08:21;98737.25;;;20.62;38.84
51249;BME280;39642;47.556;18.728;2023-03-25T00:10:55;98736.41;;;20.62;38.84
51249;BME280;39642;47.556;18.728;2023-03-25T00:13:21;98738.22;;;20.61;38.88
51249;BME280;39642;47.556;18.728;2023-03-25T00:15:49;98749.66;;;20.62;38.78
51249;BME280;39642;47.556;18.728;2023-03-25T00:18:20;98755.75;;;20.62;38.77
51249;BME280;39642;47.556;18.728;2023-03-25T00:20:51;98748.81;;;20.61;38.85
51249;BME280;39642;47.556;18.728;2023-03-25T00:23:19;98747.97;;;20.61;38.64
51249;BME280;39642;47.556;18.728;2023-03-25T00:25:46;98747.09;;;20.60;39.00
51249;BME280;39642;47.556;18.728;2023-03-25T00:28:14;98754.09;;;20.61;39.37
51249;BME280;39642;47.556;18.728;2023-03-25T00:30:41;98761.06;;;20.62;39.11
51249;BME280;39642;47.556;18.728;2023-03-25T00:33:08;98760.22;;;20.62;38.62
51249;BME280;39642;47.556;18.728;2023-03-25T00:35:42;98763.69;;;20.62;38.82
51249;BME280;39642;47.556;18.728;2023-03-25T00:38:13;98759.37;;;20.61;38.69
51249;BME280;39642;47.556;18.728;2023-03-25T00:40:39;98748.81;;;20.61;38.91
51249;BME280;39642;47.556;18.728;2023-03-25T00:43:05;98762.03;;;20.61;38.70
51249;BME280;39642;47.556;18.728;2023-03-25T00:45:32;98765.50;;;20.62;38.76
51249;BME280;39642;47.556;18.728;2023-03-25T00:47:58;98764.69;;;20.61;38.60
51249;BME280;39642;47.556;18.728;2023-03-25T00:50:25;98776.09;;;20.62;38.81
51249;BME280;39642;47.556;18.728;2023-03-25T00:52:51;98768.25;;;20.60;38.71
51249;BME280;39642;47.556;18.728;2023-03-25T00:55:20;98764.78;;;20.59;39.24
51249;BME280;39642;47.556;18.728;2023-03-25T00:57:47;98764.78;;;20.59;38.87
51249;BME280;39642;47.556;18.728;2023-03-25T01:00:15;98762.97;;;20.60;38.77
51249;BME280;39642;47.556;18.728;2023-03-25T01:02:42;98773.56;;;20.60;39.25
51249;BME280;39642;47.556;18.728;2023-03-25T01:05:09;98770.06;;;20.59;39.37
51249;BME280;39642;47.556;18.728;2023-03-25T01:07:38;98770.91;;;20.60;38.93
51249;BME280;39642;47.556;18.728;2023-03-25T01:10:06;98764.78;;;20.59;38.58
51249;BME280;39642;47.556;18.728;2023-03-25T01:12:32;98754.19;;;20.59;39.38
51249;BME280;39642;47.556;18.728;2023-03-25T01:14:58;98756.00;;;20.59;38.78
51249;BME280;39642;47.556;18.728;2023-03-25T01:17:24;98761.28;;;20.59;39.21
51249;BME280;39642;47.556;18.728;2023-03-25T01:19:50;98761.28;;;20.59;38.90
51249;BME280;39642;47.556;18.728;2023-03-25T01:22:16;98771.88;;;20.59;38.87
51249;BME280;39642;47.556;18.728;2023-03-25T01:24:42;98770.22;;;20.58;39.02
51249;BME280;39642;47.556;18.728;2023-03-25T01:27:08;98772.84;;;20.58;38.87
51249;BME280;39642;47.556;18.728;2023-03-25T01:29:34;98776.34;;;20.58;38.94
51249;BME280;39642;47.556;18.728;2023-03-25T01:32:00;98771.03;;;20.58;38.61
51249;BME280;39642;47.556;18.728;2023-03-25T01:34:26;98772.84;;;20.58;39.99
51249;BME280;39642;47.556;18.728;2023-03-25T01:36:52;98771.97;;;20.57;40.23
51249;BME280;39642;47.556;18.728;2023-03-25T01:39:21;98779.09;;;20.57;39.63
51249;BME280;39642;47.556;18.728;2023-03-25T01:41:48;98785.22;;;20.57;39.09
51249;BME280;39642;47.556;18.728;2023-03-25T01:46:47;98789.66;;;20.57;39.26
51249;BME280;39642;47.556;18.728;2023-03-25T01:49:31;98799.31;;;20.58;39.28
51249;BME280;39642;47.556;18.728;2023-03-25T01:52:13;98805.53;;;20.57;39.48
51249;BME280;39642;47.556;18.728;2023-03-25T01:54:42;98801.94;;;20.58;39.46
51249;BME280;39642;47.556;18.728;2023-03-25T01:57:11;98800.25;;;20.57;40.01
51249;BME280;39642;47.556;18.728;2023-03-25T01:59:38;98801.19;;;20.56;39.16
51249;BME280;39642;47.556;18.728;2023-03-25T02:02:06;98800.25;;;20.57;39.03
51249;BME280;39642;47.556;18.728;2023-03-25T02:04:56;98809.97;;;20.56;39.16
51249;BME280;39642;47.556;18.728;2023-03-25T02:07:26;98808.19;;;20.57;39.23
51249;BME280;39642;47.556;18.728;2023-03-25T02:09:58;98802.03;;;20.56;39.30
51249;BME280;39642;47.556;18.728;2023-03-25T02:12:27;98798.53;;;20.56;39.61
51249;BME280;39642;47.556;18.728;2023-03-25T02:14:53;98787.97;;;20.56;39.76
51249;BME280;39642;47.556;18.728;2023-03-25T02:23:23;98778.31;;;20.55;39.69
51249;BME280;39642;47.556;18.728;2023-03-25T02:28:59;98772.19;;;20.54;39.80
51249;BME280;39642;47.556;18.728;2023-03-25T02:31:42;98766.91;;;20.54;39.77
51249;BME280;39642;47.556;18.728;2023-03-25T02:40:06;98773.28;;;20.52;39.73
51249;BME280;39642;47.556;18.728;2023-03-25T02:47:52;98751.28;;;20.51;39.64
51249;BME280;39642;47.556;18.728;2023-03-25T02:50:32;98758.34;;;20.51;39.69
51249;BME280;39642;47.556;18.728;2023-03-25T02:53:02;98760.06;;;20.52;39.80
51249;BME280;39642;47.556;18.728;2023-03-25T02:55:31;98750.41;;;20.51;40.11
51249;BME280;39642;47.556;18.728;2023-03-25T02:57:59;98756.66;;;20.50;39.98
51249;BME280;39642;47.556;18.728;2023-03-25T03:00:29;98746.09;;;20.50;40.24
51249;BME280;39642;47.556;18.728;2023-03-25T03:02:58;98747.91;;;20.49;40.17
51249;BME280;39642;47.556;18.728;2023-03-25T03:16:40;98770.84;;;20.49;40.67
51249;BME280;39642;47.556;18.728;2023-03-25T03:22:02;98768.31;;;20.47;40.80
51249;BME280;39642;47.556;18.728;2023-03-25T03:24:39;98764.94;;;20.45;40.90
51249;BME280;39642;47.556;18.728;2023-03-25T03:29:57;98769.41;;;20.45;40.98
51249;BME280;39642;47.556;18.728;2023-03-25T03:32:43;98761.47;;;20.45;41.16
51249;BME280;39642;47.556;18.728;2023-03-25T03:35:19;98763.38;;;20.43;41.20
51249;BME280;39642;47.556;18.728;2023-03-25T03:37:50;98766.03;;;20.43;41.40
51249;BME280;39642;47.556;18.728;2023-03-25T03:40:19;98760.75;;;20.43;41.22
51249;BME280;39642;47.556;18.728;2023-03-25T03:42:57;98770.44;;;20.42;41.33
51249;BME280;39642;47.556;18.728;2023-03-25T03:45:30;98771.41;;;20.41;41.44
51249;BME280;39642;47.556;18.728;2023-03-25T03:47:59;98776.69;;;20.41;41.30
51249;BME280;39642;47.556;18.728;2023-03-25T03:50:31;98780.19;;;20.42;41.19
51249;BME280;39642;47.556;18.728;2023-03-25T03:53:07;98785.47;;;20.42;41.33
51249;BME280;39642;47.556;18.728;2023-03-25T03:55:48;98791.59;;;20.42;41.09
51249;BME280;39642;47.556;18.728;2023-03-25T03:58:20;98789.94;;;20.41;41.06
51249;BME280;39642;47.556;18.728;2023-03-25T04:01:29;98799.53;;;20.42;41.17
51249;BME280;39642;47.556;18.728;2023-03-25T04:04:05;98795.13;;;20.43;41.17
51249;BME280;39642;47.556;18.728;2023-03-25T04:06:41;98807.34;;;20.44;41.25
51249;BME280;39642;47.556;18.728;2023-03-25T04:09:20;98810.97;;;20.43;41.35
51249;BME280;39642;47.556;18.728;2023-03-25T04:12:16;98807.47;;;20.42;41.34
51249;BME280;39642;47.556;18.728;2023-03-25T04:14:45;98806.63;;;20.42;41.14
51249;BME280;39642;47.556;18.728;2023-03-25T04:17:11;98808.34;;;20.43;41.04
51249;BME280;39642;47.556;18.728;2023-03-25T04:19:37;98808.34;;;20.43;40.98
51249;BME280;39642;47.556;18.728;2023-03-25T04:22:05;98803.97;;;20.42;40.94
51249;BME280;39642;47.556;18.728;2023-03-25T04:24:31;98810.97;;;20.43;40.90
51249;BME280;39642;47.556;18.728;2023-03-25T04:26:58;98811.81;;;20.43;41.20
51249;BME280;39642;47.556;18.728;2023-03-25T04:29:29;98813.63;;;20.43;41.03
51249;BME280;39642;47.556;18.728;2023-03-25T04:31:57;98816.25;;;20.43;41.07
51249;BME280;39642;47.556;18.728;2023-03-25T04:34:23;98811.91;;;20.42;40.88
51249;BME280;39642;47.556;18.728;2023-03-25T04:36:49;98807.47;;;20.42;41.11
51249;BME280;39642;47.556;18.728;2023-03-25T04:39:16;98818.91;;;20.43;40.99
51249;BME280;39642;47.556;18.728;2023-03-25T04:41:42;98824.19;;;20.43;40.90
51249;BME280;39642;47.556;18.728;2023-03-25T04:44:09;98828.63;;;20.42;41.29
51249;BME280;39642;47.556;18.728;2023-03-25T04:46:36;98830.44;;;20.42;40.98
51249;BME280;39642;47.556;18.728;2023-03-25T04:49:03;98831.25;;;20.42;40.96
51249;BME280;39642;47.556;18.728;2023-03-25T04:51:31;98828.75;;;20.41;40.87
51249;BME280;39642;47.556;18.728;2023-03-25T04:53:58;98833.06;;;20.42;40.89
51249;BME280;39642;47.556;18.728;2023-03-25T04:56:23;98834.78;;;20.43;40.92
51249;BME280;39642;47.556;18.728;2023-03-25T04:58:49;98835.72;;;20.42;41.13
51249;BME280;39642;47.556;18.728;2023-03-25T05:01:23;98844.47;;;20.42;41.21
51249;BME280;39642;47.556;18.728;2023-03-25T05:03:59;98843.66;;;20.42;41.28
51249;BME280;39642;47.556;18.728;2023-03-25T05:06:33;98849.91;;;20.41;41.27
51249;BME280;39642;47.556;18.728;2023-03-25T05:09:01;98857.94;;;20.39;41.21
51249;BME280;39642;47.556;18.728;2023-03-25T05:11:30;98859.75;;;20.38;41.29
51249;BME280;39642;47.556;18.728;2023-03-25T05:13:56;98856.38;;;20.36;41.57
51249;BME280;39642;47.556;18.728;2023-03-25T05:16:22;98859.97;;;20.35;41.83
51249;BME280;39642;47.556;18.728;2023-03-25T05:18:48;98857.44;;;20.34;42.95
51249;BME280;39642;47.556;18.728;2023-03-25T05:21:15;98860.19;;;20.32;43.43
51249;BME280;39642;47.556;18.728;2023-03-25T05:23:41;98862.91;;;20.31;43.80
51249;BME280;39642;47.556;18.728;2023-03-25T05:26:08;98862.09;;;20.30;43.73
51249;BME280;39642;47.556;18.728;2023-03-25T05:28:34;98869.28;;;20.28;43.51
51249;BME280;39642;47.556;18.728;2023-03-25T05:31:00;98862.31;;;20.27;43.85
51249;BME280;39642;47.556;18.728;2023-03-25T05:33:26;98870.25;;;20.27;43.76
51249;BME280;39642;47.556;18.728;2023-03-25T05:35:52;98871.19;;;20.26;43.72
51249;BME280;39642;47.556;18.728;2023-03-25T05:38:18;98871.19;;;20.26;43.67
51249;BME280;39642;47.556;18.728;2023-03-25T05:40:45;98867.72;;;20.26;43.72
51249;BME280;39642;47.556;18.728;2023-03-25T05:43:15;98871.31;;;20.25;43.65
51249;BME280;39642;47.556;18.728;2023-03-25T05:45:41;98873.97;;;20.25;43.70
51249;BME280;39642;47.556;18.728;2023-03-25T05:48:07;98873.13;;;20.24;43.59
51249;BME280;39642;47.556;18.728;2023-03-25T05:50:35;98881.06;;;20.24;43.41
51249;BME280;39642;47.556;18.728;2023-03-25T05:53:01;98880.19;;;20.24;43.26
51249;BME280;39642;47.556;18.728;2023-03-25T05:55:27;98881.06;;;20.24;43.11
51249;BME280;39642;47.556;18.728;2023-03-25T05:57:53;98875.78;;;20.24;42.97
51249;BME280;39642;47.556;18.728;2023-03-25T06:00:19;98875.63;;;20.26;42.91
51249;BME280;39642;47.556;18.728;2023-03-25T06:02:49;98877.34;;;20.27;42.62
51249;BME280;39642;47.556;18.728;2023-03-25T06:05:15;98878.19;;;20.27;42.48
51249;BME280;39642;47.556;18.728;2023-03-25T06:07:43;98880.72;;;20.29;42.33
51249;BME280;39642;47.556;18.728;2023-03-25T06:10:11;98886.84;;;20.29;42.30
51249;BME280;39642;47.556;18.728;2023-03-25T06:12:41;98875.44;;;20.29;42.26
51249;BME280;39642;47.556;18.728;2023-03-25T06:15:08;98879.84;;;20.28;42.22
51249;BME280;39642;47.556;18.728;2023-03-25T06:17:34;98882.41;;;20.30;42.03
51249;BME280;39642;47.556;18.728;2023-03-25T06:20:08;98886.72;;;20.31;41.64
51249;BME280;39642;47.556;18.728;2023-03-25T06:22:42;98888.53;;;20.30;41.43
51249;BME280;39642;47.556;18.728;2023-03-25T06:25:10;98889.25;;;20.32;41.35
51249;BME280;39642;47.556;18.728;2023-03-25T06:27:36;98879.41;;;20.34;41.31
51249;BME280;39642;47.556;18.728;2023-03-25T06:30:09;98891.69;;;20.35;41.33
51249;BME280;39642;47.556;18.728;2023-03-25T06:32:36;98896.03;;;20.36;41.18
51249;BME280;39642;47.556;18.728;2023-03-25T06:35:04;98896.03;;;20.36;41.08
51249;BME280;39642;47.556;18.728;2023-03-25T06:37:30;98892.41;;;20.37;41.00
51249;BME280;39642;47.556;18.728;2023-03-25T06:39:56;98893.16;;;20.39;41.00
51249;BME280;39642;47.556;18.728;2023-03-25T06:42:27;98887.84;;;20.39;41.26
51249;BME280;39642;47.556;18.728;2023-03-25T06:44:54;98889.66;;;20.39;41.14
51249;BME280;39642;47.556;18.728;2023-03-25T06:47:20;98890.50;;;20.39;40.99
51249;BME280;39642;47.556;18.728;2023-03-25T06:49:47;98894.00;;;20.40;40.87
51249;BME280;39642;47.556;18.728;2023-03-25T06:52:13;98899.16;;;20.42;40.77
51249;BME280;39642;47.556;18.728;2023-03-25T06:54:39;98897.34;;;20.42;40.61
51249;BME280;39642;47.556;18.728;2023-03-25T06:57:05;98893.88;;;20.42;40.57
51249;BME280;39642;47.556;18.728;2023-03-25T06:59:31;98900.00;;;20.42;41.04
51249;BME280;39642;47.556;18.728;2023-03-25T07:01:58;98907.00;;;20.43;41.13
51249;BME280;39642;47.556;18.728;2023-03-25T07:04:23;98911.56;;;20.41;41.41
51249;BME280;39642;47.556;18.728;2023-03-25T07:06:50;98915.25;;;20.38;41.28
51249;BME280;39642;47.556;18.728;2023-03-25T07:09:15;98913.47;;;20.39;41.29
51249;BME280;39642;47.556;18.728;2023-03-25T07:11:42;98921.41;;;20.39;41.14
51249;BME280;39642;47.556;18.728;2023-03-25T07:14:08;98919.59;;;20.39;41.84
51249;BME280;39642;47.556;18.728;2023-03-25T07:16:34;98922.03;;;20.43;41.77
51249;BME280;39642;47.556;18.728;2023-03-25T07:19:00;98936.09;;;20.43;41.42
51249;BME280;39642;47.556;18.728;2023-03-25T07:21:25;98941.37;;;20.43;41.34
51249;BME280;39642;47.556;18.728;2023-03-25T07:23:51;98936.09;;;20.43;41.27
51249;BME280;39642;47.556;18.728;2023-03-25T07:26:17;98936.00;;;20.45;41.19
51249;BME280;39642;47.556;18.728;2023-03-25T07:28:43;98935.03;;;20.46;41.12
51249;BME280;39642;47.556;18.728;2023-03-25T07:31:12;98939.25;;;20.48;41.20
51249;BME280;39642;47.556;18.728;2023-03-25T07:33:38;98928.56;;;20.50;41.49
51249;BME280;39642;47.556;18.728;2023-03-25T07:36:05;98939.88;;;20.52;42.41
51249;BME280;39642;47.556;18.728;2023-03-25T07:38:32;98937.00;;;20.55;42.48
51249;BME280;39642;47.556;18.728;2023-03-25T07:40:58;98935.84;;;20.59;42.69
51249;BME280;39642;47.556;18.728;2023-03-25T07:43:24;98924.09;;;20.63;42.96
51249;BME280;39642;47.556;18.728;2023-03-25T07:45:50;98922.81;;;20.69;43.07
51249;BME280;39642;47.556;18.728;2023-03-25T07:48:16;98929.78;;;20.70;42.73
51249;BME280;39642;47.556;18.728;2023-03-25T07:50:42;98930.53;;;20.72;43.11
51249;BME280;39642;47.556;18.728;2023-03-25T07:53:08;98929.56;;;20.73;42.68
51249;BME280;39642;47.556;18.728;2023-03-25T07:55:35;98942.56;;;20.76;42.85
51249;BME280;39642;47.556;18.728;2023-03-25T07:58:01;98934.50;;;20.77;42.32
51249;BME280;39642;47.556;18.728;2023-03-25T08:00:28;98939.69;;;20.79;41.72
51249;BME280;39642;47.556;18.728;2023-03-25T08:02:54;98931.75;;;20.79;41.55
51249;BME280;39642;47.556;18.728;2023-03-25T08:05:21;98938.62;;;20.82;41.88
51249;BME280;39642;47.556;18.728;2023-03-25T08:07:50;98925.41;;;20.82;42.04
51249;BME280;39642;47.556;18.728;2023-03-25T08:10:18;98921.78;;;20.83;41.97
51249;BME280;39642;47.556;18.728;2023-03-25T08:12:44;98924.09;;;20.87;41.72
51249;BME280;39642;47.556;18.728;2023-03-25T08:15:11;98916.03;;;20.89;42.31
51249;BME280;39642;47.556;18.728;2023-03-25T08:17:38;98912.22;;;20.93;41.57
51249;BME280;39642;47.556;18.728;2023-03-25T08:20:05;98916.94;;;21.00;41.41
51249;BME280;39642;47.556;18.728;2023-03-25T08:22:32;98912.28;;;21.04;41.25
51249;BME280;39642;47.556;18.728;2023-03-25T08:24:58;98901.56;;;21.06;40.83
51249;BME280;39642;47.556;18.728;2023-03-25T08:27:24;98905.91;;;21.07;41.64
51249;BME280;39642;47.556;18.728;2023-03-25T08:29:50;98911.09;;;21.08;41.25
51249;BME280;39642;47.556;18.728;2023-03-25T08:32:23;98908.19;;;21.11;41.57
51249;BME280;39642;47.556;18.728;2023-03-25T08:34:50;98901.72;;;21.15;41.18
51249;BME280;39642;47.556;18.728;2023-03-25T08:37:16;98901.47;;;21.18;42.15
51249;BME280;39642;47.556;18.728;2023-03-25T08:39:42;98904.66;;;21.24;43.01
51249;BME280;39642;47.556;18.728;2023-03-25T08:42:11;98901.66;;;21.28;42.43
51249;BME280;39642;47.556;18.728;2023-03-25T08:44:38;98902.25;;;21.32;42.59
51249;BME280;39642;47.556;18.728;2023-03-25T08:47:04;98907.31;;;21.35;43.00
51249;BME280;39642;47.556;18.728;2023-03-25T08:49:30;98896.47;;;21.38;43.23
51249;BME280;39642;47.556;18.728;2023-03-25T08:51:57;98897.00;;;21.43;43.26
51249;BME280;39642;47.556;18.728;2023-03-25T08:54:25;98893.06;;;21.49;44.18
51249;BME280;39642;47.556;18.728;2023-03-25T08:56:51;98893.06;;;21.49;43.86
51249;BME280;39642;47.556;18.728;2023-03-25T08:59:18;98885.69;;;21.52;44.17
51249;BME280;39642;47.556;18.728;2023-03-25T09:01:43;98885.47;;;21.55;42.84
51249;BME280;39642;47.556;18.728;2023-03-25T09:04:10;98881.03;;;21.56;44.07
51249;BME280;39642;47.556;18.728;2023-03-25T09:06:36;98888.72;;;21.59;43.91
51249;BME280;39642;47.556;18.728;2023-03-25T09:09:04;98885.12;;;21.60;44.47
51249;BME280;39642;47.556;18.728;2023-03-25T09:11:31;98886.69;;;21.62;43.93
51249;BME280;39642;47.556;18.728;2023-03-25T09:13:57;98888.34;;;21.63;44.13
51249;BME280;39642;47.556;18.728;2023-03-25T09:16:23;98892.72;;;21.65;43.74
51249;BME280;39642;47.556;18.728;2023-03-25T09:18:49;98894.38;;;21.66;43.73
51249;BME280;39642;47.556;18.728;2023-03-25T09:21:15;98895.34;;;21.65;43.73
51249;BME280;39642;47.556;18.728;2023-03-25T09:23:41;98903.31;;;21.65;43.52
51249;BME280;39642;47.556;18.728;2023-03-25T09:26:07;98894.63;;;21.62;42.57
51249;BME280;39642;47.556;18.728;2023-03-25T09:28:32;98897.28;;;21.62;42.98
51249;BME280;39642;47.556;18.728;2023-03-25T09:30:58;98896.56;;;21.60;42.49
51249;BME280;39642;47.556;18.728;2023-03-25T09:33:25;98895.81;;;21.58;41.45
51249;BME280;39642;47.556;18.728;2023-03-25T09:35:52;98898.84;;;21.54;41.93
51249;BME280;39642;47.556;18.728;2023-03-25T09:38:18;98893.06;;;21.49;41.57
51249;BME280;39642;47.556;18.728;2023-03-25T09:40:44;98894.13;;;21.46;42.03
51249;BME280;39642;47.556;18.728;2023-03-25T09:45:51;98910.47;;;21.40;41.88
51249;BME280;39642;47.556;18.728;2023-03-25T09:48:31;98908.16;;;21.35;41.53
51249;BME280;39642;47.556;18.728;2023-03-25T09:51:22;98912.84;;;21.32;41.30
51249;BME280;39642;47.556;18.728;2023-03-25T09:54:09;98915.81;;;21.27;41.09
51249;BME280;39642;47.556;18.728;2023-03-25T09:56:40;98911.50;;;21.26;41.54
51249;BME280;39642;47.556;18.728;2023-03-25T09:59:13;98914.00;;;21.28;42.71
51249;BME280;39642;47.556;18.728;2023-03-25T10:01:58;98908.50;;;21.31;42.39
51249;BME280;39642;47.556;18.728;2023-03-25T10:04:44;98902.25;;;21.32;42.74
51249;BME280;39642;47.556;18.728;2023-03-25T10:10:24;98906.34;;;21.36;43.15
51249;BME280;39642;47.556;18.728;2023-03-25T10:13:30;98906.34;;;21.36;42.56
51249;BME280;39642;47.556;18.728;2023-03-25T10:16:29;98906.34;;;21.36;42.49
51249;BME280;39642;47.556;18.728;2023-03-25T10:22:16;98916.00;;;21.37;43.20
51249;BME280;39642;47.556;18.728;2023-03-25T10:24:52;98908.06;;;21.37;43.15
51249;BME280;39642;47.556;18.728;2023-03-25T10:27:33;98907.91;;;21.38;43.40
51249;BME280;39642;47.556;18.728;2023-03-25T10:30:12;98917.56;;;21.39;43.80
51249;BME280;39642;47.556;18.728;2023-03-25T10:32:43;98907.06;;;21.38;43.90
51249;BME280;39642;47.556;18.728;2023-03-25T10:35:15;98905.50;;;21.35;44.07
51249;BME280;39642;47.556;18.728;2023-03-25T10:37:42;98909.25;;;21.33;43.68
51249;BME280;39642;47.556;18.728;2023-03-25T10:40:18;98911.16;;;21.31;43.75
51249;BME280;39642;47.556;18.728;2023-03-25T10:45:50;98924.75;;;21.26;43.43
51249;BME280;39642;47.556;18.728;2023-03-25T10:48:22;98926.75;;;21.23;43.07
51249;BME280;39642;47.556;18.728;2023-03-25T10:50:51;98927.84;;;21.20;42.27
51249;BME280;39642;47.556;18.728;2023-03-25T10:53:21;98930.72;;;21.17;41.75
51249;BME280;39642;47.556;18.728;2023-03-25T10:55:57;98938.78;;;21.15;41.49
51249;BME280;39642;47.556;18.728;2023-03-25T10:58:26;98925.78;;;21.12;41.30
51249;BME280;39642;47.556;18.728;2023-03-25T11:00:53;98936.47;;;21.11;41.14
51249;BME280;39642;47.556;18.728;2023-03-25T11:03:25;98941.03;;;21.09;40.94
51249;BME280;39642;47.556;18.728;2023-03-25T11:05:52;98935.75;;;21.09;41.24
51249;BME280;39642;47.556;18.728;2023-03-25T11:08:19;98936.81;;;21.06;41.39
51249;BME280;39642;47.556;18.728;2023-03-25T11:10:50;98942.94;;;21.07;41.35
51249;BME280;39642;47.556;18.728;2023-03-25T11:13:25;98944.03;;;21.04;41.25
51249;BME280;39642;47.556;18.728;2023-03-25T11:15:53;98944.13;;;21.03;41.10
51249;BME280;39642;47.556;18.728;2023-03-25T11:18:25;98949.66;;;20.99;40.90
51249;BME280;39642;47.556;18.728;2023-03-25T11:20:59;98948.94;;;20.97;41.11
51249;BME280;39642;47.556;18.728;2023-03-25T11:23:37;98952.56;;;20.96;40.91
51249;BME280;39642;47.556;18.728;2023-03-25T11:26:12;98949.28;;;20.93;40.91
51249;BME280;39642;47.556;18.728;2023-03-25T11:28:53;98956.37;;;20.92;41.06
51249;BME280;39642;47.556;18.728;2023-03-25T11:31:22;98956.25;;;20.94;40.90
51249;BME280;39642;47.556;18.728;2023-03-25T11:36:34;98958.19;;;20.92;40.72
51249;BME280;39642;47.556;18.728;2023-03-25T11:39:25;98955.63;;;20.90;40.54
51249;BME280;39642;47.556;18.728;2023-03-25T11:41:51;98956.56;;;20.89;40.47
51249;BME280;39642;47.556;18.728;2023-03-25T11:44:29;98955.75;;;20.89;40.49
51249;BME280;39642;47.556;18.728;2023-03-25T11:46:59;98963.06;;;20.85;40.50
51249;BME280;39642;47.556;18.728;2023-03-25T11:49:26;98965.81;;;20.84;40.25
51249;BME280;39642;47.556;18.728;2023-03-25T11:51:59;98958.13;;;20.81;40.09
51249;BME280;39642;47.556;18.728;2023-03-25T11:54:27;98961.59;;;20.81;40.08
51249;BME280;39642;47.556;18.728;2023-03-25T11:56:54;98958.22;;;20.79;40.25
51249;BME280;39642;47.556;18.728;2023-03-25T11:59:26;98951.13;;;20.79;40.28
51249;BME280;39642;47.556;18.728;2023-03-25T12:02:08;98954.59;;;20.80;39.87
51249;BME280;39642;47.556;18.728;2023-03-25T12:04:55;98948.47;;;20.79;40.05
51249;BME280;39642;47.556;18.728;2023-03-25T12:07:21;98936.22;;;20.78;39.89
51249;BME280;39642;47.556;18.728;2023-03-25T12:10:03;98934.63;;;20.76;39.88
51249;BME280;39642;47.556;18.728;2023-03-25T12:15:53;98927.56;;;20.76;40.03
51249;BME280;39642;47.556;18.728;2023-03-25T12:18:34;98923.19;;;20.75;39.95
51249;BME280;39642;47.556;18.728;2023-03-25T12:29:29;98903.00;;;20.74;39.66
51249;BME280;39642;47.556;18.728;2023-03-25T12:42:32;98881.00;;;20.74;39.59
51249;BME280;39642;47.556;18.728;2023-03-25T12:45:12;98883.66;;;20.74;39.67
51249;BME280;39642;47.556;18.728;2023-03-25T12:47:46;98884.47;;;20.74;39.70
51249;BME280;39642;47.556;18.728;2023-03-25T12:50:27;98886.16;;;20.75;39.73
51249;BME280;39642;47.556;18.728;2023-03-25T12:58:26;98879.78;;;20.78;39.52
51249;BME280;39642;47.556;18.728;2023-03-25T13:03:57;98879.69;;;20.79;39.47
51249;BME280;39642;47.556;18.728;2023-03-25T13:09:23;98881.50;;;20.79;39.31
51249;BME280;39642;47.556;18.728;2023-03-25T13:12:02;98880.53;;;20.80;39.30
51249;BME280;39642;47.556;18.728;2023-03-25T13:14:38;98887.63;;;20.79;39.27
51249;BME280;39642;47.556;18.728;2023-03-25T13:17:11;98883.31;;;20.78;39.25
51249;BME280;39642;47.556;18.728;2023-03-25T13:19:40;98887.63;;;20.79;39.21
51249;BME280;39642;47.556;18.728;2023-03-25T13:22:17;98884.97;;;20.79;39.24
51249;BME280;39642;47.556;18.728;2023-03-25T13:24:52;98894.72;;;20.79;39.19
51249;BME280;39642;47.556;18.728;2023-03-25T13:27:20;98885.81;;;20.80;39.15
51249;BME280;39642;47.556;18.728;2023-03-25T13:29:55;98880.66;;;20.78;39.07
51249;BME280;39642;47.556;18.728;2023-03-25T13:32:38;98891.25;;;20.78;39.11
51249;BME280;39642;47.556;18.728;2023-03-25T13:35:48;98878.97;;;20.77;38.89
51249;BME280;39642;47.556;18.728;2023-03-25T13:38:19;98871.03;;;20.77;38.98
51249;BME280;39642;47.556;18.728;2023-03-25T13:41:08;98869.22;;;20.78;38.92
51249;BME280;39642;47.556;18.728;2023-03-25T13:43:42;98870.19;;;20.77;38.92
51249;BME280;39642;47.556;18.728;2023-03-25T13:46:14;98872.00;;;20.76;38.92
51249;BME280;39642;47.556;18.728;2023-03-25T13:49:03;98868.47;;;20.76;38.91
51249;BME280;39642;47.556;18.728;2023-03-25T13:51:32;98869.34;;;20.76;38.77
51249;BME280;39642;47.556;18.728;2023-03-25T13:54:04;98869.44;;;20.75;38.81
51249;BME280;39642;47.556;18.728;2023-03-25T14:10:25;98875.31;;;20.67;38.31
51249;BME280;39642;47.556;18.728;2023-03-25T14:12:55;98887.81;;;20.65;38.21
51249;BME280;39642;47.556;18.728;2023-03-25T14:15:28;98879.13;;;20.63;37.97
51249;BME280;39642;47.556;18.728;2023-03-25T14:17:56;98876.59;;;20.62;38.11
51249;BME280;39642;47.556;18.728;2023-03-25T14:20:33;98891.62;;;20.61;38.34
51249;BME280;39642;47.556;18.728;2023-03-25T14:23:05;98882.72;;;20.62;38.56
51249;BME280;39642;47.556;18.728;2023-03-25T14:25:41;98866.03;;;20.62;38.14
51249;BME280;39642;47.556;18.728;2023-03-25T14:28:15;98869.62;;;20.61;37.96
51249;BME280;39642;47.556;18.728;2023-03-25T14:30:42;98863.72;;;20.57;38.20
51249;BME280;39642;47.556;18.728;2023-03-25T14:33:09;98857.47;;;20.58;38.34
51249;BME280;39642;47.556;18.728;2023-03-25T14:48:34;98858.31;;;20.58;38.03
51249;BME280;39642;47.556;18.728;2023-03-25T14:53:50;98865.41;;;20.58;37.79
51249;BME280;39642;47.556;18.728;2023-03-25T14:56:20;98876.94;;;20.57;37.62
51249;BME280;39642;47.556;18.728;2023-03-25T14:58:51;98876.94;;;20.57;37.83
51249;BME280;39642;47.556;18.728;2023-03-25T15:01:19;98880.41;;;20.57;37.82
51249;BME280;39642;47.556;18.728;2023-03-25T15:03:45;98872.37;;;20.59;37.86